createdAt,value
2018-02-18T00:01:00.405Z,0.60
2018-02-18T00:03:28.050Z,0.60
2018-02-18T00:05:55.660Z,0.60
2018-02-18T00:08:23.335Z,0.60
2018-02-18T00:10:50.929Z,0.60
2018-02-18T00:13:19.327Z,0.60
2018-02-18T00:15:46.978Z,0.60
2018-02-18T00:18:15.958Z,0.60
2018-02-18T00:20:44.392Z,0.60
2018-02-18T00:23:12.017Z,0.50
2018-02-18T00:25:40.448Z,0.60
2018-02-18T00:28:08.150Z,0.50
2018-02-18T00:30:35.770Z,0.60
2018-02-18T00:33:03.437Z,0.60
2018-02-18T00:35:31.062Z,0.60
2018-02-18T00:37:59.478Z,0.60
2018-02-18T00:40:27.110Z,0.50
2018-02-18T00:42:55.668Z,0.50
2018-02-18T00:45:23.298Z,0.50
2018-02-18T00:47:50.942Z,0.50
2018-02-18T00:50:19.326Z,0.50
2018-02-18T00:52:47.764Z,0.60
2018-02-18T00:55:15.396Z,0.50
2018-02-18T00:57:43.179Z,0.50
2018-02-18T01:00:10.888Z,0.50
2018-02-18T01:02:38.492Z,0.50
2018-02-18T01:05:06.156Z,0.50
2018-02-18T01:07:34.527Z,0.50
2018-02-18T01:10:02.921Z,0.50
2018-02-18T01:12:31.402Z,0.50
2018-02-18T01:14:59.051Z,0.50
2018-02-18T01:17:26.715Z,0.50
2018-02-18T01:19:54.313Z,0.50
2018-02-18T01:22:21.968Z,0.50
2018-02-18T01:24:50.345Z,0.50
2018-02-18T01:27:18.723Z,0.50
2018-02-18T01:29:46.459Z,0.40
2018-02-18T01:32:14.105Z,0.50
2018-02-18T01:34:41.760Z,0.50
2018-02-18T01:37:09.377Z,0.50
2018-02-18T01:39:37.021Z,0.50
2018-02-18T01:42:04.653Z,0.50
2018-02-18T01:44:32.311Z,0.40
2018-02-18T01:47:00.685Z,0.40
2018-02-18T01:49:29.079Z,0.40
2018-02-18T01:51:57.482Z,0.40
2018-02-18T01:54:25.098Z,0.40
2018-02-18T01:56:52.803Z,0.40
2018-02-18T01:59:20.419Z,0.40
2018-02-18T02:01:48.406Z,0.40
2018-02-18T02:04:16.017Z,0.40
2018-02-18T02:06:43.783Z,0.40
2018-02-18T02:09:11.561Z,0.40
2018-02-18T02:11:39.200Z,0.40
2018-02-18T02:14:07.643Z,0.40
2018-02-18T02:16:35.255Z,0.40
2018-02-18T02:19:02.887Z,0.40
2018-02-18T02:21:30.518Z,0.40
2018-02-18T02:23:58.142Z,0.40
2018-02-18T02:26:26.565Z,0.40
2018-02-18T02:28:54.178Z,0.40
2018-02-18T02:31:21.852Z,0.40
2018-02-18T02:33:50.254Z,0.40
2018-02-18T02:36:18.682Z,0.30
2018-02-18T02:38:46.332Z,0.40
2018-02-18T02:41:13.947Z,0.30
2018-02-18T02:43:42.363Z,0.30
2018-02-18T02:46:09.979Z,0.30
2018-02-18T02:48:37.648Z,0.30
2018-02-18T02:51:05.283Z,0.30
2018-02-18T02:53:32.919Z,0.30
2018-02-18T02:56:01.296Z,0.30
2018-02-18T02:58:29.784Z,0.30
2018-02-18T03:00:58.218Z,0.30
2018-02-18T03:03:25.830Z,0.20
2018-02-18T03:05:54.319Z,0.30
2018-02-18T03:08:22.685Z,0.30
2018-02-18T03:10:50.401Z,0.30
2018-02-18T03:13:18.032Z,0.30
2018-02-18T03:15:46.465Z,0.30
2018-02-18T03:18:14.079Z,0.30
2018-02-18T03:20:41.735Z,0.30
2018-02-18T03:23:09.377Z,0.30
2018-02-18T03:25:37.030Z,0.30
2018-02-18T03:28:04.687Z,0.30
2018-02-18T03:30:32.342Z,0.30
2018-02-18T03:33:00.320Z,0.30
2018-02-18T03:35:28.765Z,0.30
2018-02-18T03:37:56.484Z,0.30
2018-02-18T03:40:24.104Z,0.30
2018-02-18T03:42:51.737Z,0.30
2018-02-18T03:45:19.387Z,0.30
2018-02-18T03:47:47.017Z,0.30
2018-02-18T03:50:15.444Z,0.30
2018-02-18T03:52:43.045Z,0.30
2018-02-18T03:55:10.950Z,0.30
2018-02-18T03:57:39.318Z,0.30
2018-02-18T04:00:06.989Z,0.20
2018-02-18T04:02:35.388Z,0.20
2018-02-18T04:05:03.007Z,0.20
2018-02-18T04:07:30.646Z,0.30
2018-02-18T04:09:58.262Z,0.30
2018-02-18T04:12:26.698Z,0.30
2018-02-18T04:14:54.400Z,0.20
2018-02-18T04:17:22.027Z,0.30
2018-02-18T04:19:49.706Z,0.30
2018-02-18T04:22:17.313Z,0.30
2018-02-18T04:24:44.953Z,0.20
2018-02-18T04:27:12.586Z,0.30
2018-02-18T04:29:40.231Z,0.30
2018-02-18T04:32:08.655Z,0.20
2018-02-18T04:34:37.019Z,0.20
2018-02-18T04:37:04.689Z,0.20
2018-02-18T04:39:32.810Z,0.20
2018-02-18T04:42:00.419Z,0.20
2018-02-18T04:44:28.052Z,0.20
2018-02-18T04:46:55.735Z,0.20
2018-02-18T04:49:27.054Z,0.20
2018-02-18T04:51:54.777Z,0.20
2018-02-18T04:54:22.467Z,0.20
2018-02-18T04:56:50.111Z,0.20
2018-02-18T04:59:17.774Z,0.10
2018-02-18T05:01:45.477Z,0.10
2018-02-18T05:04:21.089Z,0.10
2018-02-18T05:06:48.775Z,0.20
2018-02-18T05:09:16.376Z,0.20
2018-02-18T05:11:44.023Z,0.10
2018-02-18T05:14:11.665Z,0.20
2018-02-18T05:16:39.302Z,0.20
2018-02-18T05:19:07.669Z,0.20
2018-02-18T05:21:35.304Z,0.20
2018-02-18T05:24:02.949Z,0.20
2018-02-18T05:26:30.640Z,0.20
2018-02-18T05:28:58.290Z,0.20
2018-02-18T05:31:25.986Z,0.20
2018-02-18T05:33:53.620Z,0.20
2018-02-18T05:36:21.232Z,0.20
2018-02-18T05:38:48.858Z,0.20
2018-02-18T05:41:16.500Z,0.10
2018-02-18T05:43:44.162Z,0.10
2018-02-18T05:46:12.588Z,0.10
2018-02-18T05:48:40.212Z,0.10
2018-02-18T05:51:08.614Z,0.10
2018-02-18T05:53:36.222Z,0.10
2018-02-18T05:56:03.940Z,0.10
2018-02-18T05:58:32.350Z,0.10
2018-02-18T06:00:59.972Z,0.10
2018-02-18T06:03:28.384Z,0.10
2018-02-18T06:05:56.024Z,0.10
2018-02-18T06:08:24.453Z,0.10
2018-02-18T06:10:52.064Z,0.10
2018-02-18T06:13:19.721Z,0.10
2018-02-18T06:15:47.406Z,0.10
2018-02-18T06:18:15.014Z,0.10
2018-02-18T06:20:42.677Z,0.20
2018-02-18T06:23:10.296Z,0.10
2018-02-18T06:25:38.007Z,0.10
2018-02-18T06:28:05.643Z,0.20
2018-02-18T06:30:34.069Z,0.20
2018-02-18T06:33:01.704Z,0.20
2018-02-18T06:35:29.365Z,0.20
2018-02-18T06:37:57.777Z,0.20
2018-02-18T06:40:26.173Z,0.20
2018-02-18T06:42:53.817Z,0.20
2018-02-18T06:45:21.487Z,0.20
2018-02-18T06:47:49.179Z,0.20
2018-02-18T06:50:16.949Z,0.20
2018-02-18T06:52:44.586Z,0.20
2018-02-18T06:55:12.247Z,0.20
2018-02-18T06:57:40.648Z,0.20
2018-02-18T07:00:08.411Z,0.10
2018-02-18T07:02:36.031Z,0.10
2018-02-18T07:05:04.233Z,0.20
2018-02-18T07:07:31.899Z,0.20
2018-02-18T07:10:00.283Z,0.20
2018-02-18T07:12:28.705Z,0.20
2018-02-18T07:14:56.299Z,0.20
2018-02-18T07:17:23.923Z,0.20
2018-02-18T07:19:51.584Z,0.20
2018-02-18T07:22:19.282Z,0.20
2018-02-18T07:24:47.070Z,0.30
2018-02-18T07:27:14.683Z,0.30
2018-02-18T07:29:43.094Z,0.40
2018-02-18T07:32:10.718Z,0.30
2018-02-18T07:34:39.136Z,0.40
2018-02-18T07:37:06.786Z,0.40
2018-02-18T07:39:35.198Z,0.40
2018-02-18T07:42:02.858Z,0.30
2018-02-18T07:44:30.488Z,0.40
2018-02-18T07:46:58.884Z,0.40
2018-02-18T07:49:27.306Z,0.30
2018-02-18T07:51:54.932Z,0.40
2018-02-18T07:54:23.336Z,0.40
2018-02-18T07:56:50.960Z,0.30
2018-02-18T07:59:18.608Z,0.40
2018-02-18T08:01:46.258Z,0.50
2018-02-18T08:04:13.911Z,0.40
2018-02-18T08:06:41.532Z,0.50
2018-02-18T08:09:09.147Z,0.50
2018-02-18T08:11:36.929Z,0.50
2018-02-18T08:14:04.601Z,0.50
2018-02-18T08:16:32.228Z,0.60
2018-02-18T08:18:59.835Z,0.60
2018-02-18T08:21:27.494Z,0.60
2018-02-18T08:23:55.111Z,0.50
2018-02-18T08:26:23.571Z,0.60
2018-02-18T08:28:51.207Z,0.50
2018-02-18T08:31:18.925Z,0.50
2018-02-18T08:33:47.372Z,0.60
2018-02-18T08:36:15.027Z,0.50
2018-02-18T08:38:42.687Z,0.70
2018-02-18T08:41:10.366Z,0.70
2018-02-18T08:43:38.091Z,0.70
2018-02-18T08:46:06.564Z,0.70
2018-02-18T08:48:34.348Z,0.70
2018-02-18T08:51:02.737Z,0.80
2018-02-18T08:53:30.376Z,0.70
2018-02-18T08:55:58.783Z,0.80
2018-02-18T08:58:27.146Z,0.80
2018-02-18T09:00:54.795Z,0.80
2018-02-18T09:03:22.421Z,0.80
2018-02-18T09:05:50.835Z,0.90
2018-02-18T09:08:18.458Z,0.90
2018-02-18T09:10:46.833Z,0.90
2018-02-18T09:13:15.432Z,0.90
2018-02-18T09:15:43.103Z,0.90
2018-02-18T09:18:10.758Z,0.90
2018-02-18T09:20:39.150Z,0.90
2018-02-18T09:23:06.809Z,0.80
2018-02-18T09:25:35.238Z,0.90
2018-02-18T09:28:02.882Z,0.80
2018-02-18T09:30:30.550Z,0.80
2018-02-18T09:32:58.271Z,0.90
2018-02-18T09:35:25.915Z,0.80
2018-02-18T09:37:53.544Z,0.80
2018-02-18T09:40:21.195Z,0.80
2018-02-18T09:42:49.633Z,0.80
2018-02-18T09:45:17.335Z,0.80
2018-02-18T09:47:45.754Z,0.90
2018-02-18T09:50:13.384Z,0.90
2018-02-18T09:52:41.050Z,0.90
2018-02-18T09:55:09.471Z,1.00
2018-02-18T09:57:37.156Z,1.00
2018-02-18T10:00:04.803Z,1.10
2018-02-18T10:02:32.472Z,1.10
2018-02-18T10:05:00.111Z,1.20
2018-02-18T10:07:27.737Z,1.30
2018-02-18T10:09:55.386Z,1.30
2018-02-18T10:12:23.018Z,1.40
2018-02-18T10:14:51.585Z,1.60
2018-02-18T10:17:19.230Z,1.60
2018-02-18T10:19:46.885Z,1.70
2018-02-18T10:22:14.523Z,1.80
2018-02-18T10:24:42.184Z,1.80
2018-02-18T10:27:10.100Z,1.90
2018-02-18T10:29:37.762Z,2.10
2018-02-18T10:32:05.465Z,2.50
2018-02-18T10:34:33.876Z,2.90
2018-02-18T10:37:01.541Z,2.90
2018-02-18T10:39:29.244Z,3.10
2018-02-18T10:41:57.686Z,3.30
2018-02-18T10:44:25.362Z,3.20
2018-02-18T10:46:52.995Z,3.30
2018-02-18T10:49:20.668Z,3.30
2018-02-18T10:51:48.318Z,3.30
2018-02-18T10:54:16.031Z,3.30
2018-02-18T10:56:44.477Z,3.20
2018-02-18T10:59:12.113Z,3.20
2018-02-18T11:01:39.777Z,3.10
2018-02-18T11:04:07.502Z,2.90
2018-02-18T11:06:35.936Z,2.60
2018-02-18T11:09:03.569Z,2.60
2018-02-18T11:11:31.248Z,2.50
2018-02-18T11:13:58.904Z,2.40
2018-02-18T11:16:26.640Z,2.40
2018-02-18T11:18:54.278Z,2.30
2018-02-18T11:21:21.902Z,2.30
2018-02-18T11:23:50.451Z,2.10
2018-02-18T11:26:18.262Z,2.00
2018-02-18T11:28:45.906Z,1.90
2018-02-18T11:31:14.349Z,1.70
2018-02-18T11:33:42.020Z,1.70
2018-02-18T11:36:10.530Z,1.70
2018-02-18T11:38:41.018Z,1.70
2018-02-18T11:41:09.512Z,2.00
2018-02-18T11:43:37.193Z,2.00
2018-02-18T11:46:04.867Z,2.20
2018-02-18T11:48:32.529Z,2.20
2018-02-18T11:51:00.159Z,2.20
2018-02-18T11:53:27.849Z,2.30
2018-02-18T11:55:55.489Z,2.30
2018-02-18T11:58:23.320Z,2.40
2018-02-18T12:00:51.032Z,2.40
2018-02-18T12:03:19.604Z,2.50
2018-02-18T12:05:48.069Z,2.60
2018-02-18T12:08:16.509Z,2.70
2018-02-18T12:10:44.561Z,2.70
2018-02-18T12:13:12.207Z,2.70
2018-02-18T12:15:40.612Z,2.70
2018-02-18T12:18:08.340Z,2.70
2018-02-18T12:20:35.980Z,2.70
2018-02-18T12:23:03.732Z,2.80
2018-02-18T12:25:31.445Z,3.00
2018-02-18T12:27:59.124Z,3.20
2018-02-18T12:30:26.767Z,3.40
2018-02-18T12:32:54.490Z,3.50
2018-02-18T12:35:22.258Z,3.40
2018-02-18T12:37:49.968Z,3.30
2018-02-18T12:40:17.698Z,3.20
2018-02-18T12:42:45.413Z,3.10
2018-02-18T12:45:13.175Z,2.90
2018-02-18T12:47:40.866Z,2.70
2018-02-18T12:50:08.900Z,2.60
2018-02-18T12:52:36.695Z,2.50
2018-02-18T12:55:04.400Z,2.40
2018-02-18T12:57:32.928Z,2.30
2018-02-18T13:00:00.607Z,2.30
2018-02-18T13:02:28.326Z,2.30
2018-02-18T13:04:56.016Z,2.20
2018-02-18T13:07:23.707Z,2.20
2018-02-18T13:09:51.446Z,2.10
2018-02-18T13:12:19.119Z,2.10
2018-02-18T13:14:46.814Z,2.10
2018-02-18T13:17:14.585Z,2.10
2018-02-18T13:19:42.343Z,2.10
2018-02-18T13:22:10.015Z,2.20
2018-02-18T13:24:37.731Z,2.40
2018-02-18T13:27:06.196Z,2.80
2018-02-18T13:29:34.690Z,3.00
2018-02-18T13:32:03.179Z,2.90
2018-02-18T13:34:31.676Z,2.90
2018-02-18T13:37:00.135Z,2.90
2018-02-18T13:39:27.842Z,2.90
2018-02-18T13:41:55.541Z,2.80
2018-02-18T13:44:23.310Z,2.70
2018-02-18T13:46:51.036Z,2.60
2018-02-18T13:49:19.062Z,2.50
2018-02-18T13:51:46.779Z,2.50
2018-02-18T13:54:14.479Z,2.50
2018-02-18T13:56:42.201Z,2.50
2018-02-18T13:59:09.987Z,2.40
2018-02-18T14:01:38.518Z,2.30
2018-02-18T14:04:06.272Z,2.30
2018-02-18T14:06:34.018Z,2.40
2018-02-18T14:09:01.765Z,2.40
2018-02-18T14:11:30.270Z,2.30
2018-02-18T14:13:57.976Z,2.20
2018-02-18T14:16:25.746Z,2.20
2018-02-18T14:18:53.464Z,2.20
2018-02-18T14:21:21.953Z,2.50
2018-02-18T14:23:50.426Z,2.50
2018-02-18T14:26:18.118Z,2.50
2018-02-18T14:28:46.798Z,2.40
2018-02-18T14:31:15.260Z,2.40
2018-02-18T14:33:42.940Z,2.40
2018-02-18T14:36:10.609Z,2.50
2018-02-18T14:38:39.121Z,2.60
2018-02-18T14:41:06.816Z,2.50
2018-02-18T14:43:57.260Z,2.60
2018-02-18T14:46:36.755Z,2.50
2018-02-18T14:49:16.202Z,2.40
2018-02-18T14:51:55.638Z,2.30
2018-02-18T14:54:45.070Z,2.30
2018-02-18T15:00:10.377Z,2.20
2018-02-18T15:02:38.059Z,2.20
2018-02-18T15:05:06.082Z,2.20
2018-02-18T15:07:33.744Z,2.20
2018-02-18T15:10:01.438Z,2.20
2018-02-18T15:12:29.933Z,2.20
2018-02-18T15:14:57.594Z,2.20
2018-02-18T15:17:25.295Z,2.20
2018-02-18T15:19:53.001Z,2.10
2018-02-18T15:22:20.723Z,2.10
2018-02-18T15:24:48.367Z,2.00
2018-02-18T15:27:16.006Z,2.00
2018-02-18T15:29:43.920Z,1.90
2018-02-18T15:32:11.646Z,1.90
2018-02-18T15:34:39.347Z,1.90
2018-02-18T15:37:07.349Z,1.90
2018-02-18T15:39:34.970Z,1.90
2018-02-18T15:42:03.441Z,1.80
2018-02-18T15:44:31.104Z,1.80
2018-02-18T15:46:59.064Z,1.80
2018-02-18T15:49:26.882Z,1.80
2018-02-18T15:51:54.678Z,1.70
2018-02-18T15:54:22.425Z,1.70
2018-02-18T15:56:50.323Z,1.70
2018-02-18T15:59:18.272Z,1.60
2018-02-18T16:01:45.989Z,1.60
2018-02-18T16:04:14.458Z,1.50
2018-02-18T16:06:42.165Z,1.50
2018-02-18T16:09:10.592Z,1.40
2018-02-18T16:11:38.226Z,1.40
2018-02-18T16:14:06.633Z,1.50
2018-02-18T16:16:34.292Z,1.50
2018-02-18T16:19:01.960Z,2.30
2018-02-18T16:21:29.809Z,3.00
2018-02-18T16:23:58.247Z,3.30
2018-02-18T16:26:25.875Z,3.30
2018-02-18T16:28:53.564Z,2.80
2018-02-18T16:31:21.251Z,2.40
2018-02-18T16:33:48.941Z,2.10
2018-02-18T16:36:16.625Z,1.80
2018-02-18T16:38:45.243Z,1.50
2018-02-18T16:41:12.936Z,1.50
2018-02-18T16:43:40.650Z,1.40
2018-02-18T16:46:09.111Z,1.30
2018-02-18T16:48:37.420Z,1.30
2018-02-18T16:51:05.933Z,1.20
2018-02-18T16:53:33.811Z,1.20
2018-02-18T16:56:01.531Z,1.10
2018-02-18T16:58:29.396Z,1.10
2018-02-18T17:00:57.875Z,1.00
2018-02-18T17:03:25.626Z,1.00
2018-02-18T17:05:54.026Z,0.90
2018-02-18T17:08:22.891Z,0.90
2018-02-18T17:10:50.646Z,0.80
2018-02-18T17:13:18.335Z,0.80
2018-02-18T17:15:46.076Z,0.80
2018-02-18T17:18:13.847Z,0.70
2018-02-18T17:20:41.670Z,0.70
2018-02-18T17:23:10.157Z,0.70
2018-02-18T17:25:37.878Z,0.60
2018-02-18T17:28:05.596Z,0.70
2018-02-18T17:30:35.084Z,0.70
2018-02-18T17:33:02.887Z,0.70
2018-02-18T17:35:30.656Z,0.70
2018-02-18T17:37:59.177Z,0.60
2018-02-18T17:40:26.915Z,0.60
2018-02-18T17:42:55.367Z,0.60
2018-02-18T17:45:23.214Z,0.60
2018-02-18T17:47:51.836Z,0.60
2018-02-18T17:50:20.353Z,0.50
2018-02-18T17:52:48.810Z,0.50
2018-02-18T17:55:17.461Z,0.50
2018-02-18T17:57:45.629Z,0.40
2018-02-18T18:00:13.352Z,0.40
2018-02-18T18:02:41.802Z,0.40
2018-02-18T18:05:10.218Z,0.40
2018-02-18T18:07:38.667Z,0.30
2018-02-18T18:10:06.362Z,0.20
2018-02-18T18:12:33.984Z,0.20
2018-02-18T18:15:01.750Z,0.20
2018-02-18T18:17:29.728Z,0.20
2018-02-18T18:19:57.451Z,0.20
2018-02-18T18:22:25.966Z,0.10
2018-02-18T18:24:53.987Z,0.10
2018-02-18T18:27:21.793Z,0.20
2018-02-18T18:29:49.509Z,0.20
2018-02-18T18:32:18.093Z,0.20
2018-02-18T18:34:46.678Z,0.10
2018-02-18T18:37:14.618Z,0.20
2018-02-18T18:39:43.249Z,0.00
2018-02-18T18:42:10.987Z,0.00
2018-02-18T18:44:39.497Z,0.00
2018-02-18T18:47:07.394Z,-0.10
2018-02-18T18:49:36.673Z,-0.10
2018-02-18T18:52:05.481Z,-0.10
2018-02-18T18:54:33.449Z,-0.10
2018-02-18T18:57:01.412Z,-0.20
2018-02-18T18:59:30.262Z,-0.20
2018-02-18T19:01:58.923Z,-0.30
2018-02-18T19:04:27.827Z,-0.30
2018-02-18T19:06:55.621Z,-0.30
2018-02-18T19:09:24.355Z,-0.30
2018-02-18T19:11:54.829Z,-0.30
2018-02-18T19:14:24.221Z,-0.40
2018-02-18T19:16:52.138Z,-0.40
2018-02-18T19:19:20.009Z,-0.40
2018-02-18T19:21:48.244Z,-0.40
2018-02-18T19:24:16.194Z,-0.40
2018-02-18T19:26:44.100Z,-0.50
2018-02-18T19:29:12.776Z,-0.50
2018-02-18T19:31:40.667Z,-0.50
2018-02-18T19:34:08.610Z,-0.50
2018-02-18T19:36:36.689Z,-0.60
2018-02-18T19:39:04.802Z,-0.60
2018-02-18T19:41:32.837Z,-0.60
2018-02-18T19:44:01.750Z,-0.60
2018-02-18T19:46:29.699Z,-0.70
2018-02-18T19:48:58.675Z,-0.70
2018-02-18T19:51:26.686Z,-0.70
2018-02-18T19:53:54.647Z,-0.70
2018-02-18T19:56:22.546Z,-0.80
2018-02-18T19:58:52.132Z,-0.80
2018-02-18T20:01:20.318Z,-0.80
2018-02-18T20:03:48.290Z,-0.80
2018-02-18T20:06:17.692Z,-0.80
2018-02-18T20:08:45.672Z,-0.90
2018-02-18T20:11:13.491Z,-0.90
2018-02-18T20:13:43.046Z,-0.90
2018-02-18T20:16:11.843Z,-0.90
2018-02-18T20:18:40.883Z,-0.90
2018-02-18T20:21:10.013Z,-0.90
2018-02-18T20:23:37.828Z,-1.00
2018-02-18T20:26:05.797Z,-1.00
2018-02-18T20:28:33.562Z,-0.90
2018-02-18T20:31:01.429Z,-1.00
2018-02-18T20:33:29.793Z,-1.00
2018-02-18T20:35:57.609Z,-1.00
2018-02-18T20:38:26.785Z,-1.10
2018-02-18T20:40:54.499Z,-1.10
2018-02-18T20:43:23.459Z,-1.10
2018-02-18T20:45:51.318Z,-1.20
2018-02-18T20:48:19.201Z,-1.10
2018-02-18T20:50:46.948Z,-1.10
2018-02-18T20:53:14.897Z,-1.10
2018-02-18T20:55:43.532Z,-1.10
2018-02-18T20:58:11.258Z,-1.00
2018-02-18T21:00:39.344Z,-1.10
2018-02-18T21:03:07.122Z,-1.00
2018-02-18T21:05:34.895Z,-1.00
2018-02-18T21:08:02.642Z,-1.10
2018-02-18T21:10:30.371Z,-1.10
2018-02-18T21:12:58.857Z,-1.10
2018-02-18T21:15:27.317Z,-1.10
2018-02-18T21:17:55.277Z,-1.20
2018-02-18T21:20:23.176Z,-1.10
2018-02-18T21:22:50.998Z,-1.10
2018-02-18T21:25:18.728Z,-1.10
2018-02-18T21:27:47.172Z,-1.10
2018-02-18T21:30:15.032Z,-1.10
2018-02-18T21:32:42.879Z,-1.10
2018-02-18T21:35:10.595Z,-1.20
2018-02-18T21:37:38.426Z,-1.20
2018-02-18T21:40:06.131Z,-1.20
2018-02-18T21:42:33.784Z,-1.20
2018-02-18T21:45:01.436Z,-1.20
2018-02-18T21:47:29.230Z,-1.30
2018-02-18T21:49:56.902Z,-1.30
2018-02-18T21:52:24.678Z,-1.30
2018-02-18T21:54:52.308Z,-1.30
2018-02-18T21:57:19.945Z,-1.40
2018-02-18T21:59:48.340Z,-1.40
2018-02-18T22:02:16.763Z,-1.40
2018-02-18T22:04:44.416Z,-1.40
2018-02-18T22:07:12.282Z,-1.40
2018-02-18T22:09:39.905Z,-1.40
2018-02-18T22:12:07.524Z,-1.40
2018-02-18T22:14:35.155Z,-1.40
2018-02-18T22:17:03.526Z,-1.50
2018-02-18T22:19:31.468Z,-1.50
2018-02-18T22:21:59.143Z,-1.50
2018-02-18T22:24:26.764Z,-1.60
2018-02-18T22:26:54.416Z,-1.50
2018-02-18T22:29:22.788Z,-1.60
2018-02-18T22:31:51.191Z,-1.70
2018-02-18T22:34:18.793Z,-1.70
2018-02-18T22:36:46.390Z,-1.70
2018-02-18T22:39:14.056Z,-1.70
2018-02-18T22:41:41.675Z,-1.70
2018-02-18T22:44:09.475Z,-1.70
2018-02-18T22:46:37.087Z,-1.70
2018-02-18T22:49:04.697Z,-1.70
2018-02-18T22:51:32.316Z,-1.70
2018-02-18T22:54:00.687Z,-1.70
2018-02-18T22:56:29.079Z,-1.60
2018-02-18T22:58:57.464Z,-1.60
2018-02-18T23:01:25.986Z,-1.60
2018-02-18T23:03:53.617Z,-1.60
2018-02-18T23:06:21.977Z,-1.60
2018-02-18T23:08:51.124Z,-1.60
2018-02-18T23:11:18.725Z,-1.60
2018-02-18T23:13:46.608Z,-1.60
2018-02-18T23:16:14.329Z,-1.60
2018-02-18T23:18:41.948Z,-1.60
2018-02-18T23:21:09.578Z,-1.60
2018-02-18T23:23:37.186Z,-1.50
2018-02-18T23:26:04.794Z,-1.60
2018-02-18T23:28:32.388Z,-1.60
2018-02-18T23:31:00.014Z,-1.60
2018-02-18T23:33:27.611Z,-1.60
2018-02-18T23:35:55.228Z,-1.60
2018-02-18T23:38:23.670Z,-1.50
2018-02-18T23:40:51.284Z,-1.60
2018-02-18T23:43:19.709Z,-1.50
2018-02-18T23:45:47.320Z,-1.50
2018-02-18T23:48:15.680Z,-1.50
2018-02-18T23:50:44.826Z,-1.50
2018-02-18T23:53:12.428Z,-1.50
2018-02-18T23:55:40.047Z,-1.50
2018-02-18T23:58:07.827Z,-1.50
